首页
METAR-TAF:

METAR-TAF

机场 :

Hayden, 科羅拉多州, 美国

纬度: 40-29N, 经度: 107-13W, 海拔: 2012米

当前天气观测

该预报发布于48分钟前的01:56 UTC
静风
温度 22°C
湿度 31%
气压 1021 hPa
能見度: 16.1公里
天空无云

METAR: KHDN 270156Z AUTO 00000KT 10SM CLR 22/04 A3015 RMK AO2 SLP132 T02220039

时间: 20:44 (02:44 UTC)

预报

该预报发布于3小时和5分钟前的23:39 UTC
预报有效从27日的 00点(UTC)到 27日的 24点(UTC)
风速10节,风向西转西南,有时为20节阵风
能見度: 10公里
少量云层高于10000英尺
少量云层高于25000英尺
从 27日的 0200点(UTC)
风速8节,风向西南
能見度: 10公里
天空无云
从 27日的 0500点(UTC)
风速5节,风向东转东南
能見度: 10公里
天空无云
从 27日的 1800点(UTC)
风速14节,风向西南,有时为25节阵风
能見度: 10公里
天空无云

TAF: KHDN 262339Z 2700/2724 24010G20KT P6SM FEW100 FEW250 FM270200 23008KT P6SM SKC FM270500 11005KT P6SM SKC FM271800 23014G25KT P6SM SKC

超过4000个机场的气象观测和天气预报(METAR&TAF报告)。

可查询的气象台以黄色和红色小点在地图上表示。

将鼠标移到小点上方,可查看气象台名称。

然后点击查看天气观测和预报。

如需切换地图:点击带黑十字的绿色按钮放大地图;点击带横线的绿色按钮缩小地图;或者点击绿色箭头查看邻近地区的地图。


METAR-TAF: